Terminal Aerodrome Forecast
Issued by NWS Cheyenne, WY

Home | Current Version | Previous Version | Text Only | Print | Product List | Glossary On
Versions: 1 2 3 4 5 6 7 8 9 10 11 12 13 14 15 16 17 18 19 20 21 22 23 24 25 26 27 28
682
FTUS45 KCYS 192334
TAFCYS
TAF
KCYS 192334Z 2000/2024 16020G30KT P6SM BKN200
     FM200200 14012KT P6SM BKN200
     FM201400 15014G24KT P6SM SCT020 BKN200
     FM201700 15014G24KT P6SM BKN020
     FM202000 11012KT P6SM VCSH OVC012=

USA.gov is the U.S. government's official web portal to all federal, state and local government web resources and services.